Lumsden, Canada
Current Conditions -  °F | °C
As of 4:14 AM on Monday 22 Dec 2014 (Local Time) from CYQR Reporting Station
Light Snow Light Snow  
Wind Chill: 13°   Ceiling: 100
Heat Index: 23°   Visibility: 0.5mi
Dew Point: 23°   Wind: 9mph
Humidity: 100%   Direction: 320°NW
Pressure: 29.53"   Gusts: NA
Location:  50.64°N, 104.87°W
Report Text: CYQR 221014Z 32008KT 1/2SM R13/3500V5000FT/U -SN FZFG VV001 M05/M05 A2953 RMK FG8 SLP031
Loading
Personal Weather Stations






























Interactive Weather Map New forecast layout! Learn more

10-Day Weather Forecast

Advertisements
Track Severe Weather on mobile